Time;durP1;ratioP1;P1;durP2;ratioP2;P2;SDS_P1;SDS_P2;PMS_P1;PMS_P2;Temp;Humidity;BMP_temperature;BMP_pressure;BME280_temperature;BME280_humidity;BME280_pressure;Samples;Min_cycle;Max_cycle;Signal;HPM_P1;HPM_P2
2022/07/25 00:01:52;;;;;;;;;13.20;12.60;;;;;23.69;48.85;99464.31;5116446;28;8936;-63
2022/07/25 00:04:20;;;;;;;;;12.60;11.40;;;;;23.76;48.28;99453.41;5115965;28;8824;-62
2022/07/25 00:06:50;;;;;;;;;19.20;15.40;;;;;23.83;48.69;99446.84;5115877;28;8902;-62
2022/07/25 00:09:17;;;;;;;;;17.40;14.40;;;;;23.90;48.71;99450.41;5115514;28;8873;-63
2022/07/25 00:11:45;;;;;;;;;11.40;11.20;;;;;23.96;48.55;99454.16;5115963;28;8950;-62
2022/07/25 00:14:13;;;;;;;;;16.60;14.40;;;;;24.01;47.99;99452.44;5110385;28;8957;-62
2022/07/25 00:16:41;;;;;;;;;13.20;13.00;;;;;24.01;48.52;99451.59;5106210;28;8850;-62
2022/07/25 00:19:10;;;;;;;;;12.60;11.20;;;;;23.97;48.35;99451.19;5119916;28;8832;-61
2022/07/25 00:21:37;;;;;;;;;5.80;5.20;;;;;23.93;48.04;99451.84;5120254;28;8831;-63
2022/07/25 00:24:05;;;;;;;;;14.20;13.20;;;;;23.84;48.03;99447.69;5119624;28;8824;-63
2022/07/25 00:26:34;;;;;;;;;13.60;11.40;;;;;23.72;48.76;99446.72;5119754;28;9529;-62
2022/07/25 00:29:06;;;;;;;;;12.60;11.20;;;;;23.63;49.04;99453.47;5105030;28;8829;-62
2022/07/25 00:31:34;;;;;;;;;12.60;11.20;;;;;23.55;48.83;99449.13;5099277;28;8826;-62
2022/07/25 00:34:02;;;;;;;;;11.80;10.80;;;;;23.48;49.33;99450.19;5099024;28;8852;-62
2022/07/25 00:36:30;;;;;;;;;7.40;5.60;;;;;23.40;49.15;99448.56;5099098;28;8822;-62
2022/07/25 00:38:59;;;;;;;;;17.40;13.80;;;;;23.35;49.25;99444.78;5099370;28;8834;-62
2022/07/25 00:41:27;;;;;;;;;11.20;10.60;;;;;23.27;49.66;99437.72;5099422;28;8818;-62
2022/07/25 00:43:55;;;;;;;;;11.20;10.00;;;;;23.23;49.53;99432.94;5099051;28;8948;-62
2022/07/25 00:46:22;;;;;;;;;14.40;13.40;;;;;23.18;49.81;99432.75;5098277;28;8838;-62
2022/07/25 00:48:50;;;;;;;;;12.60;12.20;;;;;23.10;49.65;99425.66;5098499;28;8833;-62
2022/07/25 00:51:18;;;;;;;;;9.20;7.00;;;;;23.08;49.95;99421.47;5098824;28;9569;-62
2022/07/25 00:53:46;;;;;;;;;11.20;11.00;;;;;23.05;49.99;99405.59;5097958;28;8838;-63
2022/07/25 00:56:14;;;;;;;;;13.40;13.40;;;;;23.04;49.52;99409.34;5098911;28;8854;-63
2022/07/25 00:58:42;;;;;;;;;12.40;12.40;;;;;23.06;49.79;99412.72;5107444;28;8819;-61
2022/07/25 01:01:09;;;;;;;;;13.00;11.80;;;;;23.09;49.84;99406.84;5119299;28;8832;-62
2022/07/25 01:03:37;;;;;;;;;11.20;9.80;;;;;23.12;49.41;99406.41;5119111;28;8970;-61
2022/07/25 01:06:05;;;;;;;;;14.00;13.40;;;;;23.13;49.34;99405.38;5119044;28;8832;-61
2022/07/25 01:08:33;;;;;;;;;12.20;10.00;;;;;23.14;49.34;99398.88;5118608;28;8871;-62
2022/07/25 01:11:01;;;;;;;;;15.20;13.80;;;;;23.18;49.47;99405.56;5119369;28;8835;-61
2022/07/25 01:13:29;;;;;;;;;15.00;14.40;;;;;23.24;48.96;99399.28;5100816;28;8946;-62
2022/07/25 01:15:57;;;;;;;;;9.80;9.40;;;;;23.31;49.13;99384.59;5118763;28;8908;-61
2022/07/25 01:18:25;;;;;;;;;12.60;12.40;;;;;23.36;48.39;99386.69;5119221;28;8832;-62
2022/07/25 01:20:53;;;;;;;;;9.80;8.60;;;;;23.38;48.88;99393.56;5118548;28;8844;-61
2022/07/25 01:23:20;;;;;;;;;14.40;12.60;;;;;23.38;48.60;99387.31;5118805;28;8820;-61
2022/07/25 01:25:48;;;;;;;;;12.80;12.40;;;;;23.37;49.12;99391.06;5118841;28;8845;-61
2022/07/25 01:28:17;;;;;;;;;10.40;10.40;;;;;23.32;48.58;99391.72;5111861;28;8899;-61
2022/07/25 01:30:44;;;;;;;;;11.80;11.80;;;;;23.28;49.07;99389.66;5098198;28;8846;-61
2022/07/25 01:33:12;;;;;;;;;13.20;12.20;;;;;23.24;49.34;99383.81;5098509;28;8850;-61
2022/07/25 01:35:40;;;;;;;;;12.60;12.00;;;;;23.19;49.09;99382.78;5097834;28;8996;-61
2022/07/25 01:38:10;;;;;;;;;9.80;9.80;;;;;23.14;49.13;99388.84;5097783;28;8834;-61
2022/07/25 01:40:38;;;;;;;;;10.80;9.80;;;;;23.09;49.36;99382.38;5097797;28;8934;-61
2022/07/25 01:43:05;;;;;;;;;12.40;12.00;;;;;23.05;49.31;99378.41;5097559;28;8864;-62
2022/07/25 01:45:33;;;;;;;;;6.00;5.00;;;;;22.98;49.32;99377.63;5098449;28;8834;-61
2022/07/25 01:48:01;;;;;;;;;8.60;8.60;;;;;22.90;49.24;99375.97;5097732;28;8958;-61
2022/07/25 01:50:29;;;;;;;;;12.40;11.60;;;;;22.83;49.75;99374.34;5098962;28;8849;-61
2022/07/25 01:52:56;;;;;;;;;13.60;12.20;;;;;22.75;49.53;99375.41;5097917;28;8944;-61
2022/07/25 01:55:24;;;;;;;;;12.60;12.00;;;;;22.70;50.25;99380.63;5097826;28;8880;-62
2022/07/25 01:57:54;;;;;;;;;14.60;13.80;;;;;22.67;49.72;99374.78;5098233;28;8818;-61
2022/07/25 02:00:22;;;;;;;;;16.20;14.20;;;;;22.66;50.25;99373.13;5097427;28;9008;-63
2022/07/25 02:03:28;;;;;;;;;13.60;12.80;;;;;22.63;49.83;99365.41;5097272;28;8968;-62
2022/07/25 02:05:38;;;;;;;;;14.80;14.00;;;;;22.59;49.87;99372.28;5096756;28;8964;-61
2022/07/25 02:08:07;;;;;;;;;13.20;13.00;;;;;22.55;50.08;99371.88;5097248;28;8953;-61
2022/07/25 02:10:37;;;;;;;;;13.80;13.80;;;;;22.52;50.07;99366.03;5097541;28;8944;-62
2022/07/25 02:13:05;;;;;;;;;19.60;17.20;;;;;22.51;50.00;99369.81;5097751;28;8838;-61
2022/07/25 02:15:32;;;;;;;;;15.40;15.00;;;;;22.48;50.42;99359.38;5096378;28;9589;-61
2022/07/25 02:18:00;;;;;;;;;19.40;16.60;;;;;22.46;49.80;99367.72;5095422;28;8976;-61
2022/07/25 02:20:28;;;;;;;;;15.00;14.40;;;;;22.46;50.29;99358.78;5099790;28;8962;-62
2022/07/25 02:22:59;;;;;;;;;13.40;12.40;;;;;22.47;50.47;99363.16;5117648;28;8977;-60
2022/07/25 02:25:27;;;;;;;;;8.20;8.20;;;;;22.46;50.23;99358.78;5117375;28;8848;-61
2022/07/25 02:27:56;;;;;;;;;15.80;14.80;;;;;22.44;50.14;99350.84;5117368;28;8823;-61
2022/07/25 02:30:24;;;;;;;;;13.60;12.00;;;;;22.43;50.26;99354.59;5117509;28;8864;-61
2022/07/25 02:32:52;;;;;;;;;14.20;12.80;;;;;22.41;50.27;99355.81;5133751;27;8837;-63
2022/07/25 02:35:20;;;;;;;;;13.80;12.00;;;;;22.37;50.04;99351.84;5137806;27;8822;-61
2022/07/25 02:37:50;;;;;;;;;12.20;11.60;;;;;22.35;50.11;99337.66;5137770;27;9499;-62
2022/07/25 02:40:18;;;;;;;;;14.40;12.80;;;;;22.31;50.77;99350.00;5136802;27;8852;-61
2022/07/25 02:42:46;;;;;;;;;15.40;14.60;;;;;22.29;50.65;99350.19;5138177;27;8861;-61
2022/07/25 02:45:13;;;;;;;;;17.40;17.40;;;;;22.27;50.48;99340.59;5137998;27;8879;-61
2022/07/25 02:47:42;;;;;;;;;12.00;10.80;;;;;22.26;50.52;99338.94;5137466;27;8829;-61
2022/07/25 02:50:09;;;;;;;;;13.00;13.00;;;;;22.22;50.20;99333.09;5135258;27;8821;-61
2022/07/25 02:52:41;;;;;;;;;18.00;16.00;;;;;22.19;50.24;99333.53;5116688;28;8827;-61
2022/07/25 02:55:09;;;;;;;;;13.00;11.80;;;;;22.19;50.32;99324.53;5117174;28;8824;-61
2022/07/25 02:57:37;;;;;;;;;16.00;15.00;;;;;22.14;50.88;99314.31;5117519;28;8900;-62
2022/07/25 03:00:05;;;;;;;;;14.60;14.60;;;;;22.15;50.43;99315.19;5116288;28;8941;-61
2022/07/25 03:02:32;;;;;;;;;14.60;13.40;;;;;22.14;50.47;99308.91;5116764;28;8847;-62
2022/07/25 03:05:00;;;;;;;;;13.00;11.80;;;;;22.14;50.69;99318.91;5117076;28;8928;-62
2022/07/25 03:07:28;;;;;;;;;13.40;12.40;;;;;22.12;50.72;99310.16;5116827;28;8812;-61
2022/07/25 03:09:56;;;;;;;;;17.80;17.40;;;;;22.09;51.06;99311.41;5116688;28;8828;-62
2022/07/25 03:12:24;;;;;;;;;15.40;14.20;;;;;22.05;50.86;99312.88;5116648;28;8936;-63
2022/07/25 03:14:52;;;;;;;;;15.80;13.40;;;;;22.03;51.03;99312.25;5117092;28;8848;-61
2022/07/25 03:17:20;;;;;;;;;11.80;11.80;;;;;22.00;51.07;99309.16;5116668;28;8831;-61
2022/07/25 03:19:48;;;;;;;;;13.80;12.80;;;;;21.98;51.10;99306.63;5116656;28;9564;-61
2022/07/25 03:22:15;;;;;;;;;12.00;9.40;;;;;21.97;50.66;99301.41;5117565;27;8824;-61
2022/07/25 03:24:43;;;;;;;;;12.60;11.60;;;;;21.94;50.94;99307.25;5116521;28;8851;-61
2022/07/25 03:27:11;;;;;;;;;11.40;11.00;;;;;21.92;51.17;99298.47;5116775;28;8840;-61
2022/07/25 03:29:39;;;;;;;;;12.00;10.80;;;;;21.95;51.02;99303.50;5116052;28;8851;-61
2022/07/25 03:32:07;;;;;;;;;13.60;12.80;;;;;21.96;50.69;99303.31;5106611;28;8854;-61
2022/07/25 03:34:35;;;;;;;;;12.20;12.20;;;;;21.99;50.83;99296.59;5095783;28;8834;-62
2022/07/25 03:37:03;;;;;;;;;8.60;6.80;;;;;21.99;50.49;99288.47;5095607;28;8830;-61
2022/07/25 03:39:31;;;;;;;;;15.40;13.20;;;;;22.01;50.69;99297.25;5095934;28;8842;-61
2022/07/25 03:41:58;;;;;;;;;14.60;12.00;;;;;22.03;50.81;99289.72;5095739;28;8834;-60
2022/07/25 03:44:26;;;;;;;;;13.00;11.00;;;;;22.03;50.59;99287.00;5095687;28;8834;-62
2022/07/25 03:46:54;;;;;;;;;10.20;9.40;;;;;22.04;50.55;99286.81;5095604;28;8877;-61
2022/07/25 03:49:22;;;;;;;;;10.80;9.20;;;;;22.06;50.83;99283.88;5095862;28;8915;-60
2022/07/25 03:51:50;;;;;;;;;12.80;12.40;;;;;22.07;50.29;99282.81;5110286;28;8897;-62
2022/07/25 03:54:18;;;;;;;;;17.60;16.20;;;;;22.09;50.77;99278.84;5116224;28;8870;-61
2022/07/25 03:56:46;;;;;;;;;15.80;13.40;;;;;22.11;50.28;99270.50;5115897;28;8832;-62
2022/07/25 03:59:14;;;;;;;;;12.80;9.00;;;;;22.12;50.79;99274.88;5115943;28;8848;-60
2022/07/25 04:01:41;;;;;;;;;12.00;11.60;;;;;22.13;50.23;99268.41;5116054;28;8860;-62
2022/07/25 04:04:09;;;;;;;;;15.00;15.00;;;;;22.11;50.25;99262.38;5115326;28;8828;-61
2022/07/25 04:06:37;;;;;;;;;15.00;15.00;;;;;22.10;50.44;99260.72;5115486;28;8878;-61
2022/07/25 04:09:05;;;;;;;;;14.60;13.00;;;;;22.09;50.76;99262.56;5115866;28;8921;-61
2022/07/25 04:11:34;;;;;;;;;17.80;14.80;;;;;22.10;50.90;99253.38;5115870;28;8828;-61
2022/07/25 04:14:02;;;;;;;;;15.20;14.20;;;;;22.13;50.33;99254.84;5115700;28;8835;-61
2022/07/25 04:16:32;;;;;;;;;14.60;11.60;;;;;22.15;50.20;99250.06;5115741;28;8844;-61
2022/07/25 04:19:00;;;;;;;;;13.40;10.80;;;;;22.17;50.43;99248.78;5115763;28;8897;-61
2022/07/25 04:21:28;;;;;;;;;11.80;11.60;;;;;22.21;50.34;99246.47;5103088;28;8814;-61
2022/07/25 04:23:56;;;;;;;;;11.60;11.00;;;;;22.24;50.59;99241.47;5095669;28;8829;-61
2022/07/25 04:26:23;;;;;;;;;12.40;11.80;;;;;22.29;50.08;99241.66;5095584;28;8845;-62
2022/07/25 04:28:51;;;;;;;;;11.20;10.20;;;;;22.31;49.97;99244.19;5095000;28;8830;-60
2022/07/25 04:31:19;;;;;;;;;12.80;12.00;;;;;22.32;49.95;99235.81;5095107;28;8866;-61
2022/07/25 04:33:46;;;;;;;;;11.60;11.60;;;;;22.34;50.20;99244.59;5095376;28;8834;-60
2022/07/25 04:36:14;;;;;;;;;16.60;15.00;;;;;22.36;49.83;99238.91;5095373;28;8850;-61
2022/07/25 04:38:42;;;;;;;;;12.00;10.60;;;;;22.39;50.35;99235.78;5095633;28;8834;-62
2022/07/25 04:41:10;;;;;;;;;12.20;9.60;;;;;22.46;49.67;99233.94;5094743;28;9499;-61
2022/07/25 04:43:38;;;;;;;;;12.20;11.40;;;;;22.52;49.95;99228.47;5094842;28;8833;-61
2022/07/25 04:46:11;;;;;;;;;16.20;15.60;;;;;22.61;49.52;99219.00;5095064;28;8860;-61
2022/07/25 04:48:39;;;;;;;;;12.00;10.20;;;;;22.71;49.75;99229.41;5094903;28;8842;-61
2022/07/25 04:51:09;;;;;;;;;11.00;10.20;;;;;22.82;49.71;99220.56;5096097;28;8957;-61
2022/07/25 04:53:37;;;;;;;;;9.40;9.40;;;;;22.95;49.34;99212.34;5094969;28;8845;-62
2022/07/25 04:56:04;;;;;;;;;9.60;9.60;;;;;23.09;48.74;99213.94;5094404;28;8846;-61
2022/07/25 04:58:32;;;;;;;;;12.00;10.80;;;;;23.22;48.39;99206.53;5094657;28;8834;-62
2022/07/25 05:01:00;;;;;;;;;10.40;9.20;;;;;23.39;48.22;99201.41;5094306;28;8876;-61
2022/07/25 05:03:28;;;;;;;;;10.80;9.60;;;;;23.55;48.26;99203.56;5095903;28;8822;-61
2022/07/25 05:05:55;;;;;;;;;7.00;6.00;;;;;23.70;47.81;99201.34;5097119;28;8826;-61
2022/07/25 05:08:24;;;;;;;;;10.00;10.00;;;;;23.85;47.54;99201.81;5097238;28;8923;-62
2022/07/25 05:10:51;;;;;;;;;12.60;11.80;;;;;24.01;47.33;99203.97;5098198;28;8834;-62
2022/07/25 05:13:20;;;;;;;;;12.40;11.40;;;;;24.15;47.40;99200.06;5098279;28;9585;-62
2022/07/25 05:15:48;;;;;;;;;14.40;13.20;;;;;24.29;46.81;99198.84;5097929;28;8969;-62
2022/07/25 05:18:16;;;;;;;;;13.80;12.80;;;;;24.45;46.61;99206.41;5097533;28;8857;-62
2022/07/25 05:20:44;;;;;;;;;14.00;12.00;;;;;24.60;46.57;99198.69;5098407;28;8811;-61
2022/07/25 05:23:11;;;;;;;;;10.80;10.20;;;;;24.74;46.22;99202.91;5098385;28;9659;-61
2022/07/25 05:25:39;;;;;;;;;10.20;10.00;;;;;24.89;46.19;99192.44;5097328;28;8834;-61
2022/07/25 05:28:07;;;;;;;;;14.20;13.20;;;;;25.05;45.43;99194.50;5097922;28;8842;-62
2022/07/25 05:30:35;;;;;;;;;12.20;11.20;;;;;25.19;45.54;99179.59;5097681;28;8942;-62
2022/07/25 05:33:06;;;;;;;;;9.80;9.40;;;;;25.33;45.63;99181.91;5096628;28;8861;-62
2022/07/25 05:35:34;;;;;;;;;13.00;11.00;;;;;25.45;45.21;99174.56;5096877;28;8833;-61
2022/07/25 05:38:03;;;;;;;;;11.60;11.00;;;;;25.60;45.10;99170.31;5097428;28;8853;-62
2022/07/25 05:40:31;;;;;;;;;14.00;12.00;;;;;25.75;44.70;99170.66;5097051;28;8907;-62
2022/07/25 05:42:58;;;;;;;;;11.80;11.60;;;;;25.87;44.83;99171.50;5097067;28;8908;-62
2022/07/25 05:45:30;;;;;;;;;11.20;10.40;;;;;25.98;44.15;99169.84;5096316;28;8972;-62
2022/07/25 05:47:58;;;;;;;;;11.00;11.00;;;;;26.13;44.20;99168.31;5096393;28;9491;-62
2022/07/25 05:50:26;;;;;;;;;8.20;6.40;;;;;26.32;43.83;99163.47;5100610;28;8990;-62
2022/07/25 05:52:53;;;;;;;;;11.80;11.40;;;;;26.46;43.71;99154.78;5116648;28;8885;-62
2022/07/25 05:55:21;;;;;;;;;11.40;11.00;;;;;26.58;43.47;99157.50;5115850;28;8820;-62
2022/07/25 05:57:49;;;;;;;;;11.80;10.60;;;;;26.67;44.01;99154.16;5116287;28;8854;-62
2022/07/25 06:00:17;;;;;;;;;14.00;13.00;;;;;26.75;43.79;99161.94;5116721;28;8848;-62
2022/07/25 06:02:45;;;;;;;;;12.40;11.80;;;;;26.82;43.72;99157.16;5116955;28;8844;-62
2022/07/25 06:05:13;;;;;;;;;12.80;12.60;;;;;26.83;43.55;99156.09;5115484;28;8840;-64
2022/07/25 06:07:41;;;;;;;;;12.00;11.80;;;;;26.83;43.68;99158.81;5115700;28;8839;-62
2022/07/25 06:10:09;;;;;;;;;12.00;12.00;;;;;26.81;43.81;99158.25;5115857;28;8836;-62
2022/07/25 06:12:36;;;;;;;;;12.80;11.80;;;;;26.77;43.50;99162.53;5116407;28;9556;-62
2022/07/25 06:15:04;;;;;;;;;12.00;12.00;;;;;26.75;43.92;99161.94;5115573;28;8974;-62
2022/07/25 06:17:34;;;;;;;;;16.20;13.60;;;;;26.72;43.55;99159.69;5116938;28;8870;-63
2022/07/25 06:20:02;;;;;;;;;12.00;11.40;;;;;26.70;43.99;99153.66;5112572;28;8862;-62
2022/07/25 06:22:29;;;;;;;;;12.20;11.60;;;;;26.70;43.84;99161.84;5096757;28;8834;-62
2022/07/25 06:24:57;;;;;;;;;12.80;12.00;;;;;26.75;43.45;99155.66;5096694;28;8850;-62
2022/07/25 06:27:25;;;;;;;;;11.00;11.00;;;;;26.84;43.48;99154.16;5096037;28;8918;-61
2022/07/25 06:29:56;;;;;;;;;13.80;13.80;;;;;26.95;43.69;99156.03;5096593;28;8850;-61
2022/07/25 06:32:23;;;;;;;;;13.00;12.40;;;;;27.08;43.54;99156.53;5096328;28;8834;-62
2022/07/25 06:34:51;;;;;;;;;10.80;10.80;;;;;27.23;42.88;99153.28;5096533;28;8845;-62
2022/07/25 06:37:19;;;;;;;;;15.00;13.60;;;;;27.36;43.23;99152.94;5096481;28;8846;-62
2022/07/25 06:39:47;;;;;;;;;14.80;12.20;;;;;27.48;42.70;99142.75;5096191;28;8834;-61
2022/07/25 06:42:15;;;;;;;;;14.20;13.40;;;;;27.59;43.18;99136.34;5096191;28;8842;-62
2022/07/25 06:44:43;;;;;;;;;10.40;10.40;;;;;27.72;42.71;99136.00;5095382;28;8830;-63
2022/07/25 06:47:12;;;;;;;;;12.20;11.20;;;;;27.84;42.23;99136.75;5096172;28;8822;-62
2022/07/25 06:49:40;;;;;;;;;14.80;13.00;;;;;27.94;42.17;99140.47;5096744;28;8818;-61
2022/07/25 06:52:07;;;;;;;;;13.80;13.40;;;;;28.07;42.06;99139.28;5115822;28;8920;-62
2022/07/25 06:54:35;;;;;;;;;6.80;6.60;;;;;28.20;41.89;99139.72;5115354;28;8908;-62
2022/07/25 06:57:03;;;;;;;;;13.40;13.00;;;;;28.27;42.01;99131.28;5115624;28;8868;-61
2022/07/25 06:59:32;;;;;;;;;13.20;12.40;;;;;28.34;42.02;99138.25;5115146;28;8844;-62
2022/07/25 07:01:59;;;;;;;;;14.60;13.60;;;;;28.40;41.68;99133.69;5116049;28;8828;-61
2022/07/25 07:04:27;;;;;;;;;10.20;9.80;;;;;28.44;41.95;99130.19;5116121;28;9594;-62
2022/07/25 07:06:55;;;;;;;;;10.80;10.80;;;;;28.50;41.54;99131.91;5115726;28;8851;-62
2022/07/25 07:09:23;;;;;;;;;15.40;13.00;;;;;28.55;41.69;99126.47;5116083;28;8874;-61
2022/07/25 07:11:51;;;;;;;;;13.80;12.80;;;;;28.61;41.91;99125.44;5115968;28;8916;-61
2022/07/25 07:14:19;;;;;;;;;9.20;9.20;;;;;28.66;41.29;99119.19;5115726;28;8832;-62
2022/07/25 07:16:47;;;;;;;;;13.20;11.80;;;;;28.68;41.60;99120.56;5115484;28;8869;-61
2022/07/25 07:19:16;;;;;;;;;14.00;13.20;;;;;28.71;41.68;99120.06;5115016;28;8836;-61
2022/07/25 07:21:44;;;;;;;;;16.00;12.40;;;;;28.73;41.52;99117.91;5095100;28;8834;-61
2022/07/25 07:24:13;;;;;;;;;13.80;13.00;;;;;28.75;41.24;99118.47;5095063;28;8914;-61
2022/07/25 07:26:51;;;;;;;;;14.80;11.00;;;;;28.77;41.32;99119.06;5095060;28;8837;-61
2022/07/25 07:29:18;;;;;;;;;10.00;9.80;;;;;28.79;41.46;99114.13;5095212;28;8837;-62
2022/07/25 07:31:46;;;;;;;;;14.00;13.60;;;;;28.82;41.49;99115.53;5102450;28;8828;-61
2022/07/25 07:34:14;;;;;;;;;11.00;10.00;;;;;28.83;41.10;99118.00;5116771;27;8923;-62
2022/07/25 07:36:43;;;;;;;;;13.60;11.60;;;;;28.87;41.48;99119.13;5135640;27;8818;-61
2022/07/25 07:39:11;;;;;;;;;15.00;12.20;;;;;28.92;41.53;99116.47;5136484;27;8852;-61
2022/07/25 07:41:38;;;;;;;;;4.80;4.00;;;;;28.97;41.25;99126.69;5135984;27;8834;-62
2022/07/25 07:44:06;;;;;;;;;13.80;13.60;;;;;29.02;41.17;99116.56;5135170;27;8821;-61
2022/07/25 07:46:35;;;;;;;;;14.40;13.00;;;;;29.04;40.85;99108.09;5136539;27;8909;-61
2022/07/25 07:49:02;;;;;;;;;15.00;13.80;;;;;29.07;41.04;99113.03;5135985;27;8841;-61
2022/07/25 07:51:31;;;;;;;;;10.40;8.20;;;;;29.07;41.32;99108.41;5135983;27;8838;-61
2022/07/25 07:56:48;;;;;;;;;12.40;10.60;;;;;29.06;40.82;99109.47;5134761;27;9533;-61
2022/07/25 07:59:15;;;;;;;;;10.80;10.00;;;;;29.05;40.63;99109.75;5133968;27;9809;-61
2022/07/25 08:01:43;;;;;;;;;11.00;11.00;;;;;29.01;41.07;99117.66;5133463;27;8922;-62
2022/07/25 08:04:11;;;;;;;;;12.00;11.40;;;;;29.03;41.19;99111.91;5115011;27;8818;-62
2022/07/25 08:06:41;;;;;;;;;11.00;10.80;;;;;29.05;40.60;99110.56;5112975;28;8926;-61
2022/07/25 08:09:09;;;;;;;;;12.80;12.40;;;;;29.11;40.77;99115.00;5112765;28;8839;-62
2022/07/25 08:11:37;;;;;;;;;11.60;11.00;;;;;29.21;40.64;99119.75;5113607;28;8828;-62
2022/07/25 08:14:05;;;;;;;;;12.20;11.00;;;;;29.31;40.20;99106.94;5113542;28;8832;-61
2022/07/25 08:16:34;;;;;;;;;11.60;11.40;;;;;29.47;39.76;99102.38;5095427;28;8847;-62
2022/07/25 08:19:02;;;;;;;;;12.00;11.40;;;;;29.63;39.53;99095.94;5112887;28;8860;-62
2022/07/25 08:21:30;;;;;;;;;10.80;10.00;;;;;29.76;40.07;99096.31;5112624;28;8859;-62
2022/07/25 08:23:58;;;;;;;;;12.80;11.80;;;;;29.81;39.98;99101.81;5114388;28;8828;-62
2022/07/25 08:26:26;;;;;;;;;11.60;10.80;;;;;29.87;39.70;99095.25;5115170;28;8847;-61
2022/07/25 08:28:55;;;;;;;;;15.40;12.40;;;;;29.92;39.32;99089.81;5124790;27;8830;-67
2022/07/25 08:31:42;;;;;;;;;14.80;13.20;;;;;30.03;39.27;99087.94;5133759;27;8854;-61
2022/07/25 08:34:10;;;;;;;;;8.60;8.60;;;;;30.12;39.54;99084.41;5134772;27;8967;-62
2022/07/25 08:36:38;;;;;;;;;12.40;12.00;;;;;30.22;39.19;99086.38;5135398;27;8861;-62
2022/07/25 08:39:06;;;;;;;;;11.00;11.00;;;;;30.33;39.40;99091.66;5138590;27;8822;-61
2022/07/25 08:41:34;;;;;;;;;12.60;11.60;;;;;30.49;38.87;99095.28;5139227;27;8826;-62
2022/07/25 08:44:02;;;;;;;;;11.40;10.80;;;;;30.59;38.61;99091.44;5138990;27;8921;-62
2022/07/25 08:46:30;;;;;;;;;12.20;11.80;;;;;30.73;38.60;99093.72;5139335;27;8848;-62
2022/07/25 08:48:58;;;;;;;;;13.20;12.40;;;;;30.84;38.48;99087.94;5138964;27;8888;-62
2022/07/25 08:51:26;;;;;;;;;13.20;13.00;;;;;30.95;38.48;99090.44;5138924;27;8826;-61
2022/07/25 08:53:54;;;;;;;;;11.80;11.40;;;;;31.13;37.72;99086.31;5139564;27;8829;-62
2022/07/25 08:56:22;;;;;;;;;13.60;12.40;;;;;31.26;37.78;99083.06;5139642;27;8933;-62
2022/07/25 08:58:51;;;;;;;;;11.00;10.00;;;;;31.32;37.89;99085.53;5127560;27;8840;-61
2022/07/25 09:01:18;;;;;;;;;11.00;10.80;;;;;31.43;37.71;99092.66;5117447;28;9805;-62
2022/07/25 09:03:46;;;;;;;;;12.00;11.60;;;;;31.56;37.87;99089.34;5117492;28;8839;-61
2022/07/25 09:06:14;;;;;;;;;11.60;11.40;;;;;31.71;37.66;99091.28;5116879;28;8846;-63
2022/07/25 09:08:42;;;;;;;;;14.20;13.20;;;;;31.70;37.25;99089.63;5116228;28;8851;-62
2022/07/25 09:11:10;;;;;;;;;11.40;11.40;;;;;31.68;37.74;99078.88;5116586;28;8871;-62
2022/07/25 09:13:39;;;;;;;;;15.60;14.00;;;;;31.66;37.55;99074.72;5116314;28;8908;-62
2022/07/25 09:16:07;;;;;;;;;11.40;11.40;;;;;31.57;37.41;99070.91;5116052;28;8828;-61
2022/07/25 09:18:38;;;;;;;;;12.00;12.00;;;;;31.51;37.61;99078.34;5116081;28;8828;-62
2022/07/25 09:21:06;;;;;;;;;13.20;13.00;;;;;31.51;37.49;99069.25;5116837;28;8912;-62
2022/07/25 09:23:34;;;;;;;;;11.60;11.00;;;;;31.50;37.61;99073.13;5116949;28;8827;-63
2022/07/25 09:26:02;;;;;;;;;14.80;14.80;;;;;31.46;37.64;99069.25;5117671;28;8881;-63
2022/07/25 09:28:30;;;;;;;;;12.60;12.00;;;;;31.38;38.07;99072.56;5125135;27;8837;-62
2022/07/25 09:30:58;;;;;;;;;10.60;10.60;;;;;31.31;38.42;99085.78;5138697;27;8857;-62
2022/07/25 09:33:25;;;;;;;;;11.20;10.20;;;;;31.35;37.93;99084.97;5137840;27;8830;-62
2022/07/25 09:35:53;;;;;;;;;7.80;7.40;;;;;31.47;37.94;99081.91;5137742;27;8830;-62
2022/07/25 09:38:22;;;;;;;;;10.00;10.00;;;;;31.64;37.77;99077.75;5137957;27;8829;-62
2022/07/25 09:40:50;;;;;;;;;14.20;13.80;;;;;31.85;37.35;99064.78;5138171;27;8849;-62
2022/07/25 09:43:17;;;;;;;;;12.60;11.60;;;;;32.04;37.35;99068.59;5137993;27;8829;-62
2022/07/25 09:45:45;;;;;;;;;11.80;10.60;;;;;32.27;36.80;99081.75;5137846;27;8913;-62
2022/07/25 09:48:13;;;;;;;;;16.20;13.60;;;;;32.48;36.95;99097.09;5137530;27;8821;-61
2022/07/25 09:50:41;;;;;;;;;13.40;13.20;;;;;32.57;36.47;99098.13;5137858;27;8830;-62
2022/07/25 09:53:09;;;;;;;;;15.00;13.80;;;;;32.69;35.99;99099.44;5122314;27;8840;-62
2022/07/25 09:55:37;;;;;;;;;13.00;11.80;;;;;32.69;35.78;99093.13;5117328;28;8844;-62
2022/07/25 09:58:05;;;;;;;;;13.40;12.20;;;;;32.61;36.92;99094.53;5117248;27;8896;-61
2022/07/25 10:00:33;;;;;;;;;15.60;14.60;;;;;32.80;35.85;99098.31;5118096;28;8872;-62
2022/07/25 10:03:00;;;;;;;;;12.20;12.20;;;;;33.10;35.80;99088.97;5116720;28;8848;-62
2022/07/25 10:05:28;;;;;;;;;15.80;14.20;;;;;33.41;34.98;99088.47;5116874;28;8840;-62
2022/07/25 10:07:57;;;;;;;;;11.00;10.60;;;;;33.79;34.96;99084.78;5115841;28;8832;-61
2022/07/25 10:10:25;;;;;;;;;12.40;10.00;;;;;34.15;34.15;99079.66;5116672;28;8928;-61
2022/07/25 10:12:52;;;;;;;;;13.20;12.20;;;;;34.39;33.74;99083.25;5116378;28;8832;-61
2022/07/25 10:15:20;;;;;;;;;13.20;12.40;;;;;34.34;34.62;99086.09;5116004;28;8851;-63
2022/07/25 10:17:51;;;;;;;;;14.40;13.00;;;;;34.22;34.92;99096.72;5116310;28;8823;-62
2022/07/25 10:20:18;;;;;;;;;16.20;15.20;;;;;33.81;34.90;99087.28;5116333;28;8828;-62
2022/07/25 10:22:46;;;;;;;;;12.40;12.40;;;;;33.39;35.44;99098.97;5116192;28;9501;-62
2022/07/25 10:25:23;;;;;;;;;13.00;12.00;;;;;33.02;35.89;99095.94;5114553;28;8839;-62
2022/07/25 10:27:52;;;;;;;;;13.40;12.40;;;;;32.78;36.08;99099.69;5118397;27;8822;-62
2022/07/25 10:30:22;;;;;;;;;12.00;11.00;;;;;32.85;36.00;99100.22;5134842;27;8938;-62
2022/07/25 10:32:49;;;;;;;;;14.00;13.40;;;;;33.25;35.80;99106.28;5135512;27;8868;-63
2022/07/25 10:35:17;;;;;;;;;12.60;12.40;;;;;33.39;35.74;99103.66;5135252;27;8864;-63
2022/07/25 10:37:46;;;;;;;;;14.60;14.00;;;;;33.31;35.72;99115.34;5134705;27;8917;-63
2022/07/25 10:40:15;;;;;;;;;11.80;11.80;;;;;33.09;35.89;99117.69;5135214;27;8838;-63
2022/07/25 10:42:44;;;;;;;;;10.20;9.20;;;;;32.87;36.66;99120.06;5135035;27;8860;-63
2022/07/25 10:45:12;;;;;;;;;13.40;12.60;;;;;32.68;36.55;99128.13;5135467;27;8822;-63
2022/07/25 10:47:41;;;;;;;;;14.20;13.00;;;;;32.44;37.33;99129.09;5136339;27;8926;-62
2022/07/25 10:50:11;;;;;;;;;11.80;11.40;;;;;32.14;36.91;99127.25;5135993;27;8918;-62
2022/07/25 10:52:59;;;;;;;;;15.00;13.60;;;;;31.80;38.14;99126.22;5134718;27;8837;-62
2022/07/25 10:55:27;;;;;;;;;17.00;14.60;;;;;31.54;38.63;99121.00;5135835;27;8911;-61
2022/07/25 10:57:55;;;;;;;;;10.00;9.00;;;;;31.36;38.70;99108.66;5127088;27;8824;-61
2022/07/25 11:00:42;;;;;;;;;15.60;14.60;;;;;31.30;38.99;99106.16;5112749;28;8843;-61
2022/07/25 11:03:10;;;;;;;;;14.80;13.20;;;;;31.21;38.49;99111.41;5113663;28;8852;-62
2022/07/25 11:05:44;;;;;;;;;16.60;15.00;;;;;31.04;38.66;99110.00;5112986;28;8840;-61
2022/07/25 11:08:13;;;;;;;;;14.00;13.00;;;;;30.83;39.79;99111.88;5112973;28;8831;-61
2022/07/25 11:10:49;;;;;;;;;13.00;11.80;;;;;30.66;39.75;99099.50;5113029;28;8824;-63
2022/07/25 11:13:17;;;;;;;;;14.00;13.40;;;;;30.48;40.05;99099.94;5114264;28;8866;-60
2022/07/25 11:15:45;;;;;;;;;9.40;9.20;;;;;30.29;40.20;99093.28;5114962;28;8971;-61
2022/07/25 11:18:13;;;;;;;;;13.40;12.00;;;;;30.17;40.23;99103.69;5114020;28;8836;-63
2022/07/25 11:20:41;;;;;;;;;12.80;12.20;;;;;30.15;40.58;99114.13;5113980;28;8832;-60
2022/07/25 11:23:10;;;;;;;;;15.00;13.80;;;;;30.28;40.36;99116.38;5113398;28;8844;-61
2022/07/25 11:25:37;;;;;;;;;14.00;11.00;;;;;30.34;39.94;99111.72;5114445;28;8836;-61
2022/07/25 11:28:05;;;;;;;;;10.00;9.60;;;;;30.44;39.37;99109.00;5123182;27;8896;-61
2022/07/25 11:30:33;;;;;;;;;11.00;10.00;;;;;30.66;39.40;99112.41;5135405;27;8846;-62
2022/07/25 11:33:01;;;;;;;;;13.80;13.00;;;;;31.36;38.66;99105.06;5135436;27;9808;-61
2022/07/25 11:35:29;;;;;;;;;6.20;6.00;;;;;32.40;36.94;99112.28;5135430;27;8834;-61